Time;durP1;ratioP1;P1;durP2;ratioP2;P2;SDS_P1;SDS_P2;PMS_P1;PMS_P2;Temp;Humidity;BMP_temperature;BMP_pressure;BME280_temperature;BME280_humidity;BME280_pressure;Samples;Min_cycle;Max_cycle;Signal;HPM_P1;HPM_P2
2022/07/08 00:01:58;;;;;;;;;;;;;;;-140.72;100.00;52488.25;4997891;28;19917;-72
2022/07/08 00:04:24;;;;;;;;;;;;;;;-140.72;100.00;52480.16;4994691;28;19917;-72
2022/07/08 00:06:49;;;;;;;;;;;;;;;-140.72;100.00;52545.06;5015197;28;19925;-72
2022/07/08 00:09:14;;;;;;;;;;;;;;;-140.72;100.00;52526.81;5005619;28;19934;-71
2022/07/08 00:11:41;;;;;;;;;;;;;;;-140.72;100.00;52504.50;5013529;28;19925;-72
2022/07/08 00:14:07;;;;;;;;;;;;;;;-140.72;100.00;52545.06;5015528;28;19928;-72
2022/07/08 00:16:33;;;;;;;;;;;;;;;-140.72;100.00;52530.88;5015507;28;20007;-72
2022/07/08 00:18:59;;;;;;;;;;;;;;;-140.72;100.00;52545.06;5015621;28;19917;-72
2022/07/08 00:21:24;;;;;;;;;;;;;;;-140.72;100.00;52528.84;5015548;28;19959;-72
2022/07/08 00:23:49;;;;;;;;;;;;;;;-140.72;100.00;52528.84;5001594;28;19918;-73
2022/07/08 00:26:15;;;;;;;;;;;;;;;-140.72;100.00;52528.84;5026142;28;19925;-73
2022/07/08 00:28:40;;;;;;;;;;;;;;;-140.72;100.00;52541.03;5006958;28;19922;-74
2022/07/08 00:31:05;;;;;;;;;;;;;;;-140.72;100.00;52522.75;5007350;28;19925;-71
2022/07/08 00:33:31;;;;;;;;;;;;;;;-140.72;100.00;52539.00;4998550;28;20020;-71
2022/07/08 00:35:56;;;;;;;;;;;;;;;-140.72;100.00;52539.00;5025831;28;19921;-72
2022/07/08 00:38:21;;;;;;;;;;;;;;;-140.72;100.00;52561.31;5016382;28;19918;-71
2022/07/08 00:40:46;;;;;;;;;;;;;;;-140.72;100.00;52553.19;5014641;28;19918;-72
2022/07/08 00:43:25;;;;;;;;;;;;;;;-140.72;100.00;52551.16;5014392;28;20402;-72
2022/07/08 00:45:50;;;;;;;;;;;;;;;-140.72;100.00;52539.00;5014570;28;20335;-71
2022/07/08 00:48:15;;;;;;;;;;;;;;;-140.72;100.00;52536.97;5004280;28;19918;-72
2022/07/08 00:50:40;;;;;;;;;;;;;;;-140.72;100.00;52520.72;5011545;28;20027;-72
2022/07/08 00:53:06;;;;;;;;;;;;;;;-140.72;100.00;52555.22;5014490;28;20016;-72
2022/07/08 00:55:31;;;;;;;;;;;;;;;-140.72;100.00;52553.19;5015277;28;19981;-72
2022/07/08 00:57:56;;;;;;;;;;;;;;;-140.72;100.00;52587.69;5014156;28;19924;-72
2022/07/08 01:00:22;;;;;;;;;;;;;;;-140.72;100.00;52551.16;5014006;28;19925;-72
2022/07/08 01:02:47;;;;;;;;;;;;;;;-140.72;100.00;52555.22;5013828;28;19917;-72
2022/07/08 01:05:12;;;;;;;;;;;;;;;-140.72;100.00;52547.09;5013643;28;19918;-72
2022/07/08 01:07:37;;;;;;;;;;;;;;;-140.72;100.00;52575.50;5013820;28;19960;-72
2022/07/08 01:10:03;;;;;;;;;;;;;;;-140.72;100.00;52536.97;4998131;28;19994;-72
2022/07/08 01:12:29;;;;;;;;;;;;;;;-140.72;100.00;52530.88;4994338;28;19944;-72
2022/07/08 01:14:54;;;;;;;;;;;;;;;-140.72;100.00;52508.56;5010531;28;19917;-72
2022/07/08 01:17:20;;;;;;;;;;;;;;;-140.72;100.00;52520.72;5003206;28;19918;-72
2022/07/08 01:19:45;;;;;;;;;;;;;;;-140.72;100.00;52547.09;4993873;28;19972;-72
2022/07/08 01:22:10;;;;;;;;;;;;;;;-140.72;100.00;52577.53;5001405;28;19960;-72
2022/07/08 01:24:35;;;;;;;;;;;;;;;-140.72;100.00;52573.50;5013711;28;20010;-72
2022/07/08 01:27:00;;;;;;;;;;;;;;;-140.72;100.00;52492.31;5009646;28;19956;-72
2022/07/08 01:32:32;;;;;;;;;;;;;;;-140.72;100.00;52532.91;5002643;28;19920;-72
2022/07/08 01:34:57;;;;;;;;;;;;;;;-140.72;100.00;52524.78;5013569;28;19993;-72
2022/07/08 01:40:43;;;;;;;;;;;;;;;-140.72;100.00;52561.31;5000931;28;19936;-72
2022/07/08 01:46:11;;;;;;;;;;;;;;;-140.72;100.00;52565.38;5013839;28;20012;-72
2022/07/08 01:48:37;;;;;;;;;;;;;;;-140.72;100.00;52549.13;4999671;28;19992;-72
2022/07/08 01:51:02;;;;;;;;;;;;;;;-140.72;100.00;52555.22;5012548;28;19922;-72
2022/07/08 01:53:27;;;;;;;;;;;;;;;-140.72;100.00;52555.22;5015761;28;19929;-72
2022/07/08 01:55:53;;;;;;;;;;;;;;;-140.72;100.00;52585.66;5014408;28;20336;-72
2022/07/08 02:04:23;;;;;;;;;;;;;;;-140.72;100.00;52536.97;5000219;28;20012;-72
2022/07/08 02:06:49;;;;;;;;;;;;;;;-140.72;100.00;52520.72;5000576;28;19957;-73
2022/07/08 02:09:14;;;;;;;;;;;;;;;-140.72;100.00;52555.22;5007928;28;20414;-73
2022/07/08 02:14:23;;;;;;;;;;;;;;;-140.72;100.00;52565.38;5005799;28;19925;-72
2022/07/08 02:16:48;;;;;;;;;;;;;;;-140.72;100.00;52543.03;5013390;28;20337;-72
2022/07/08 02:19:13;;;;;;;;;;;;;;;-140.72;100.00;52563.34;5013733;28;20351;-72
2022/07/08 02:21:38;;;;;;;;;;;;;;;-140.72;100.00;52557.25;5000238;28;19924;-73
2022/07/08 02:24:04;;;;;;;;;;;;;;;-140.72;100.00;52547.09;5011042;28;19964;-73
2022/07/08 02:26:29;;;;;;;;;;;;;;;-140.72;100.00;52569.44;5013176;28;20294;-72
2022/07/08 02:28:54;;;;;;;;;;;;;;;-140.72;100.00;52565.38;5000865;28;19928;-72
2022/07/08 02:31:19;;;;;;;;;;;;;;;-140.72;100.00;52587.69;4995367;28;19925;-72
2022/07/08 02:33:44;;;;;;;;;;;;;;;-140.72;100.00;52555.22;4995990;28;19925;-71
2022/07/08 02:36:10;;;;;;;;;;;;;;;-140.72;100.00;52575.50;5010316;28;20059;-71
2022/07/08 02:38:36;;;;;;;;;;;;;;;-140.72;100.00;52549.13;5010115;28;20293;-72
2022/07/08 02:41:01;;;;;;;;;;;;;;;-140.72;100.00;52510.59;5016936;28;20374;-74
2022/07/08 02:43:26;;;;;;;;;;;;;;;-140.72;100.00;52557.25;5016915;28;19924;-72
2022/07/08 02:45:51;;;;;;;;;;;;;;;-140.72;100.00;52585.66;5005799;28;19929;-73
2022/07/08 02:48:17;;;;;;;;;;;;;;;-140.72;100.00;52563.34;5015132;28;19925;-72
2022/07/08 02:50:42;;;;;;;;;;;;;;;-140.72;100.00;52573.50;5015667;28;20017;-72
2022/07/08 02:53:07;;;;;;;;;;;;;;;-140.72;100.00;52573.50;5011443;28;19918;-72
2022/07/08 02:55:32;;;;;;;;;;;;;;;-140.72;100.00;52553.19;5008752;28;19917;-72
2022/07/08 02:57:57;;;;;;;;;;;;;;;-140.72;100.00;52551.16;5019295;28;19964;-72
2022/07/08 03:00:23;;;;;;;;;;;;;;;-140.72;100.00;52569.44;5026559;28;19917;-72
2022/07/08 03:02:48;;;;;;;;;;;;;;;-140.72;100.00;52534.94;5010645;28;19929;-72
2022/07/08 03:05:13;;;;;;;;;;;;;;;-140.72;100.00;52547.09;5004904;28;19917;-72
2022/07/08 03:07:39;;;;;;;;;;;;;;;-140.72;100.00;52585.66;5002313;28;19925;-72
2022/07/08 03:10:04;;;;;;;;;;;;;;;-140.72;100.00;52536.97;5009970;28;19918;-72
2022/07/08 03:12:29;;;;;;;;;;;;;;;-140.72;100.00;52559.28;4997382;28;19917;-72
2022/07/08 03:14:55;;;;;;;;;;;;;;;-140.72;100.00;52557.25;5002038;28;20389;-72
2022/07/08 03:17:20;;;;;;;;;;;;;;;-140.72;100.00;52563.34;5016457;28;19929;-72
2022/07/08 03:19:45;;;;;;;;;;;;;;;-140.72;100.00;52585.66;5011169;28;19918;-72
2022/07/08 03:22:10;;;;;;;;;;;;;;;-140.72;100.00;52536.97;4996819;28;19926;-72
2022/07/08 03:24:35;;;;;;;;;;;;;;;-140.72;100.00;52614.06;5014690;28;19918;-72
2022/07/08 03:27:01;;;;;;;;;;;;;;;-140.72;100.00;52545.06;5028332;28;19920;-72
2022/07/08 03:29:26;;;;;;;;;;;;;;;-140.72;100.00;52555.22;4998802;28;19918;-72
2022/07/08 03:31:51;;;;;;;;;;;;;;;-140.72;100.00;52589.72;5008908;28;20156;-72
2022/07/08 03:34:16;;;;;;;;;;;;;;;-140.72;100.00;52543.03;5000712;28;19917;-72
2022/07/08 03:36:41;;;;;;;;;;;;;;;-140.72;100.00;52528.84;5026403;28;19921;-72
2022/07/08 03:39:07;;;;;;;;;;;;;;;-140.72;100.00;52573.50;5018811;28;19944;-72
2022/07/08 03:41:33;;;;;;;;;;;;;;;-140.72;100.00;52614.06;5006012;28;19922;-71
2022/07/08 03:43:59;;;;;;;;;;;;;;;-140.72;100.00;52557.25;5010784;28;20374;-71
2022/07/08 03:46:24;;;;;;;;;;;;;;;-140.72;100.00;52532.91;5014688;28;19936;-71
2022/07/08 03:48:50;;;;;;;;;;;;;;;-140.72;100.00;52561.31;5016168;28;20406;-72
2022/07/08 03:51:15;;;;;;;;;;;;;;;-140.72;100.00;52581.59;5015905;28;19917;-72
2022/07/08 03:53:40;;;;;;;;;;;;;;;-140.72;100.00;52567.41;5015863;28;19957;-72
2022/07/08 03:56:06;;;;;;;;;;;;;;;-140.72;100.00;52583.63;5011200;28;19918;-72
2022/07/08 03:58:31;;;;;;;;;;;;;;;-140.72;100.00;52614.06;4996960;28;19928;-72
2022/07/08 04:00:57;;;;;;;;;;;;;;;-140.72;100.00;52541.03;4996483;28;19971;-72
2022/07/08 04:03:22;;;;;;;;;;;;;;;-140.72;100.00;52524.78;4996742;28;19921;-72
2022/07/08 04:05:47;;;;;;;;;;;;;;;-140.72;100.00;52557.25;5012681;28;19963;-72
2022/07/08 04:08:12;;;;;;;;;;;;;;;-140.72;100.00;52536.97;5007570;28;20021;-72
2022/07/08 04:10:37;;;;;;;;;;;;;;;-140.72;100.00;52555.22;4996051;28;19925;-72
2022/07/08 04:13:03;;;;;;;;;;;;;;;-140.72;100.00;52516.66;5004771;28;19917;-72
2022/07/08 04:15:28;;;;;;;;;;;;;;;-140.72;100.00;52528.84;5013266;28;19925;-73
2022/07/08 04:17:53;;;;;;;;;;;;;;;-140.72;100.00;52581.59;5004031;28;19918;-73
2022/07/08 04:20:19;;;;;;;;;;;;;;;-140.72;100.00;52567.41;5001655;28;19941;-73
2022/07/08 04:22:44;;;;;;;;;;;;;;;-140.72;100.00;52508.56;5015507;28;20004;-72
2022/07/08 04:25:09;;;;;;;;;;;;;;;-140.72;100.00;52526.81;5014274;28;19918;-72
2022/07/08 04:27:35;;;;;;;;;;;;;;;-140.72;100.00;52549.13;5014260;28;19921;-72
2022/07/08 04:30:00;;;;;;;;;;;;;;;-140.72;100.00;52524.78;5000658;28;19926;-73
2022/07/08 04:32:25;;;;;;;;;;;;;;;-140.72;100.00;52528.84;5004566;28;19918;-73
2022/07/08 04:34:51;;;;;;;;;;;;;;;-140.72;100.00;52539.00;5003040;28;19924;-73
2022/07/08 04:37:17;;;;;;;;;;;;;;;-140.72;100.00;52557.25;5010668;28;19924;-72
2022/07/08 04:39:42;;;;;;;;;;;;;;;-140.72;100.00;52528.84;5013690;28;20383;-73
2022/07/08 04:42:07;;;;;;;;;;;;;;;-140.72;100.00;52539.00;5015054;28;19918;-72
2022/07/08 04:44:32;;;;;;;;;;;;;;;-140.72;100.00;52514.63;5008948;28;19925;-73
2022/07/08 04:46:57;;;;;;;;;;;;;;;-140.72;100.00;52541.03;5014949;28;19961;-73
2022/07/08 04:49:24;;;;;;;;;;;;;;;-140.72;100.00;52474.06;5001513;28;19925;-74
2022/07/08 04:51:50;;;;;;;;;;;;;;;-140.72;100.00;52516.66;5014884;28;20017;-73
2022/07/08 04:54:15;;;;;;;;;;;;;;;-140.72;100.00;52536.97;5011025;28;20440;-74
2022/07/08 04:56:40;;;;;;;;;;;;;;;-140.72;100.00;52543.03;5006779;28;19918;-73
2022/07/08 04:59:06;;;;;;;;;;;;;;;-140.72;100.00;52528.84;5006843;28;19925;-75
2022/07/08 05:01:31;;;;;;;;;;;;;;;-140.72;100.00;52488.25;5020971;28;19925;-73
2022/07/08 05:04:34;;;;;;;;;;;;;;;-140.72;100.00;52492.31;5004502;28;20469;-73
2022/07/08 05:06:59;;;;;;;;;;;;;;;-140.72;100.00;52524.78;5002449;28;19917;-73
2022/07/08 05:09:24;;;;;;;;;;;;;;;-140.72;100.00;52522.75;5003136;28;19917;-73
2022/07/08 05:11:50;;;;;;;;;;;;;;;-140.72;100.00;52524.78;5013286;28;19975;-74
2022/07/08 05:14:15;;;;;;;;;;;;;;;-140.72;100.00;52494.34;5016247;28;20293;-72
2022/07/08 05:16:41;;;;;;;;;;;;;;;-140.72;100.00;52498.41;5011727;28;19917;-75
2022/07/08 05:19:07;;;;;;;;;;;;;;;-140.72;100.00;52500.44;5009816;28;20015;-72
2022/07/08 05:21:32;;;;;;;;;;;;;;;-140.72;100.00;52488.25;5017167;28;20273;-72
2022/07/08 05:23:58;;;;;;;;;;;;;;;-140.72;100.00;52482.16;5005099;28;19917;-73
2022/07/08 05:26:23;;;;;;;;;;;;;;;-140.72;100.00;52516.66;5016826;28;20354;-71
2022/07/08 05:28:48;;;;;;;;;;;;;;;-140.72;100.00;52494.34;5011083;28;19930;-74
2022/07/08 05:31:13;;;;;;;;;;;;;;;-140.72;100.00;52496.38;5021120;28;20029;-73
2022/07/08 05:33:38;;;;;;;;;;;;;;;-140.72;100.00;52488.25;5021325;28;20360;-71
2022/07/08 05:36:06;;;;;;;;;;;;;;;-140.72;100.00;52516.66;5019102;28;19921;-73
2022/07/08 05:41:33;;;;;;;;;;;;;;;-140.72;100.00;52447.69;4997244;28;19960;-74
2022/07/08 05:43:59;;;;;;;;;;;;;;;-140.72;100.00;52484.19;4998888;28;20361;-74
2022/07/08 05:46:24;;;;;;;;;;;;;;;-140.72;100.00;52478.13;5015757;28;19932;-73
2022/07/08 05:48:49;;;;;;;;;;;;;;;-140.72;100.00;52472.03;5015560;28;19917;-78
2022/07/08 05:51:14;;;;;;;;;;;;;;;-140.72;100.00;52492.31;5015471;28;19922;-73
2022/07/08 05:53:39;;;;;;;;;;;;;;;-140.72;100.00;52484.19;5014672;28;19972;-73
2022/07/08 05:56:05;;;;;;;;;;;;;;;-140.72;100.00;52453.75;5015708;28;20001;-73
2022/07/08 05:58:30;;;;;;;;;;;;;;;-140.72;100.00;52459.84;5014136;28;20366;-74
2022/07/08 06:00:55;;;;;;;;;;;;;;;-140.72;100.00;52486.22;5018134;28;19921;-73
